createdAt,value
2017-10-12T00:01:50.447Z,27.50
2017-10-12T00:04:19.125Z,27.27
2017-10-12T00:06:48.632Z,29.60
2017-10-12T00:09:17.299Z,26.70
2017-10-12T00:11:45.984Z,35.30
2017-10-12T00:14:14.738Z,30.97
2017-10-12T00:16:45.046Z,39.67
2017-10-12T00:19:13.714Z,36.00
2017-10-12T00:21:42.918Z,32.20
2017-10-12T00:24:12.382Z,34.03
2017-10-12T00:26:41.506Z,37.83
2017-10-12T00:29:12.125Z,35.53
2017-10-12T00:31:43.010Z,29.70
2017-10-12T00:34:12.176Z,36.40
2017-10-12T00:36:42.389Z,31.50
2017-10-12T00:39:13.387Z,27.50
2017-10-12T00:41:45.791Z,28.60
2017-10-12T00:44:14.482Z,26.80
2017-10-12T00:46:45.345Z,35.40
2017-10-12T00:49:15.043Z,33.50
2017-10-12T00:51:45.584Z,34.60
2017-10-12T00:54:16.560Z,36.60
2017-10-12T00:56:48.446Z,26.80
2017-10-12T00:59:17.949Z,32.00
2017-10-12T01:01:49.764Z,38.93
2017-10-12T01:04:21.944Z,42.47
2017-10-12T01:06:51.966Z,33.90
2017-10-12T01:09:21.954Z,34.07
2017-10-12T01:11:51.100Z,38.00
2017-10-12T01:14:19.887Z,32.20
2017-10-12T01:16:50.649Z,31.13
2017-10-12T01:19:20.500Z,33.93
2017-10-12T01:21:52.909Z,30.43
2017-10-12T01:24:25.582Z,31.57
2017-10-12T01:26:56.730Z,26.20
2017-10-12T01:29:25.800Z,29.53
2017-10-12T01:31:55.800Z,28.80
2017-10-12T01:34:27.266Z,29.70
2017-10-12T01:36:58.547Z,35.97
2017-10-12T01:39:28.524Z,29.33
2017-10-12T01:41:57.701Z,26.17
2017-10-12T01:44:26.968Z,23.53
2017-10-12T01:46:56.752Z,25.20
2017-10-12T01:49:26.446Z,26.70
2017-10-12T01:51:56.446Z,28.07
2017-10-12T01:54:25.862Z,24.63
2017-10-12T01:56:54.667Z,28.23
2017-10-12T01:59:23.638Z,33.50
2017-10-12T02:01:52.862Z,29.47
2017-10-12T02:04:22.549Z,33.77
2017-10-12T02:06:54.310Z,32.07
2017-10-12T02:09:26.661Z,28.07
2017-10-12T02:11:55.356Z,30.63
2017-10-12T02:14:26.209Z,35.63
2017-10-12T02:16:55.728Z,28.97
2017-10-12T02:19:24.555Z,27.67
2017-10-12T02:21:53.423Z,30.00
2017-10-12T02:24:23.703Z,30.63
2017-10-12T02:26:54.231Z,27.17
2017-10-12T02:29:24.761Z,23.23
2017-10-12T02:31:54.660Z,27.13
2017-10-12T02:34:23.632Z,27.13
2017-10-12T02:36:52.530Z,25.87
2017-10-12T02:39:21.364Z,28.43
2017-10-12T02:41:50.416Z,25.30
2017-10-12T02:44:19.111Z,29.00
2017-10-12T02:46:47.821Z,30.53
2017-10-12T02:49:17.282Z,31.13
2017-10-12T02:51:46.138Z,29.37
2017-10-12T02:54:16.326Z,23.67
2017-10-12T02:56:45.474Z,33.27
2017-10-12T02:59:15.847Z,39.13
2017-10-12T03:01:46.075Z,27.93
2017-10-12T03:04:15.436Z,28.10
2017-10-12T03:06:44.155Z,28.70
2017-10-12T03:09:12.738Z,27.00
2017-10-12T03:11:41.441Z,27.10
2017-10-12T03:14:10.059Z,29.73
2017-10-12T03:16:39.034Z,30.87
2017-10-12T03:19:08.335Z,37.67
2017-10-12T03:21:37.701Z,27.37
2017-10-12T03:24:06.577Z,33.93
2017-10-12T03:26:35.540Z,30.67
2017-10-12T03:29:04.129Z,36.43
2017-10-12T03:31:32.855Z,33.70
2017-10-12T03:34:01.573Z,30.20
2017-10-12T03:36:30.996Z,34.57
2017-10-12T03:38:59.735Z,35.47
2017-10-12T03:41:29.284Z,38.90
2017-10-12T03:43:57.962Z,34.47
2017-10-12T03:46:26.667Z,34.90
2017-10-12T03:48:55.447Z,33.00
2017-10-12T03:51:26.242Z,28.90
2017-10-12T03:53:56.397Z,33.53
2017-10-12T03:56:26.065Z,40.57
2017-10-12T03:58:54.618Z,30.53
2017-10-12T04:01:24.094Z,39.73
2017-10-12T04:03:52.681Z,28.70
2017-10-12T04:06:21.275Z,37.57
2017-10-12T04:08:49.852Z,31.87
2017-10-12T04:11:18.377Z,31.60
2017-10-12T04:13:46.975Z,33.90
2017-10-12T04:16:15.648Z,37.50
2017-10-12T04:18:44.280Z,31.63
2017-10-12T04:21:12.878Z,30.07
2017-10-12T04:23:41.593Z,35.43
2017-10-12T04:26:11.414Z,29.37
2017-10-12T04:28:40.455Z,34.87
2017-10-12T04:31:10.189Z,36.10
2017-10-12T04:33:40.380Z,35.30
2017-10-12T04:36:09.853Z,35.60
2017-10-12T04:38:39.483Z,31.00
2017-10-12T04:41:08.918Z,35.17
2017-10-12T04:43:37.505Z,33.43
2017-10-12T04:46:08.339Z,38.67
2017-10-12T04:48:37.105Z,34.73
2017-10-12T04:51:06.518Z,35.40
2017-10-12T04:53:35.212Z,35.33
2017-10-12T04:56:03.767Z,36.83
2017-10-12T04:58:32.314Z,40.90
2017-10-12T05:01:01.124Z,37.77
2017-10-12T05:03:30.633Z,33.63
2017-10-12T05:05:59.181Z,36.20
2017-10-12T05:08:28.701Z,40.20
2017-10-12T05:10:57.301Z,37.73
2017-10-12T05:13:25.896Z,31.43
2017-10-12T05:15:55.295Z,32.20
2017-10-12T05:18:23.897Z,41.40
2017-10-12T05:20:52.514Z,45.20
2017-10-12T05:23:21.101Z,34.90
2017-10-12T05:25:49.746Z,35.23
2017-10-12T05:28:18.383Z,36.37
2017-10-12T05:30:47.949Z,38.93
2017-10-12T05:33:16.563Z,35.30
2017-10-12T05:35:45.234Z,41.07
2017-10-12T05:38:14.351Z,31.80
2017-10-12T05:40:43.296Z,32.20
2017-10-12T05:43:12.119Z,40.27
2017-10-12T05:45:40.742Z,32.50
2017-10-12T05:48:09.324Z,40.23
2017-10-12T05:50:37.954Z,35.50
2017-10-12T05:53:06.538Z,40.43
2017-10-12T05:55:35.151Z,40.27
2017-10-12T05:58:03.841Z,33.53
2017-10-12T06:00:32.428Z,32.83
2017-10-12T06:03:01.062Z,36.20
2017-10-12T06:05:29.639Z,47.57
2017-10-12T06:07:58.261Z,30.10
2017-10-12T06:10:26.875Z,38.27
2017-10-12T06:12:55.750Z,37.37
2017-10-12T06:15:24.454Z,39.63
2017-10-12T06:17:53.054Z,38.33
2017-10-12T06:20:21.761Z,38.63
2017-10-12T06:22:50.407Z,44.83
2017-10-12T06:25:18.974Z,34.50
2017-10-12T06:27:47.583Z,34.90
2017-10-12T06:30:16.380Z,40.63
2017-10-12T06:32:45.338Z,37.90
2017-10-12T06:35:13.967Z,40.53
2017-10-12T06:37:42.793Z,35.70
2017-10-12T06:40:12.238Z,35.03
2017-10-12T06:42:41.086Z,37.53
2017-10-12T06:45:10.531Z,41.23
2017-10-12T06:47:39.117Z,40.30
2017-10-12T06:50:08.362Z,40.50
2017-10-12T06:52:37.712Z,38.10
2017-10-12T06:57:41.082Z,32.20
2017-10-12T07:00:10.435Z,37.33
2017-10-12T07:02:38.972Z,34.20
2017-10-12T07:05:09.344Z,44.40
2017-10-12T07:07:37.958Z,37.87
2017-10-12T07:10:07.690Z,39.37
2017-10-12T07:12:36.330Z,43.27
2017-10-12T07:15:05.166Z,38.10
2017-10-12T07:17:33.845Z,41.23
2017-10-12T07:20:02.432Z,35.80
2017-10-12T07:22:31.031Z,40.20
2017-10-12T07:24:59.865Z,37.60
2017-10-12T07:27:28.596Z,34.17
2017-10-12T07:29:57.158Z,39.03
2017-10-12T07:32:25.717Z,34.73
2017-10-12T07:34:55.047Z,40.20
2017-10-12T07:37:23.688Z,39.77
2017-10-12T07:39:52.428Z,42.20
2017-10-12T07:42:21.172Z,37.17
2017-10-12T07:44:49.750Z,43.33
2017-10-12T07:47:18.695Z,35.17
2017-10-12T07:49:47.351Z,39.23
2017-10-12T07:52:16.902Z,37.53
2017-10-12T07:54:45.608Z,37.77
2017-10-12T07:57:14.257Z,37.37
2017-10-12T07:59:42.898Z,41.57
2017-10-12T08:02:11.668Z,37.87
2017-10-12T08:04:40.419Z,32.47
2017-10-12T08:07:09.810Z,35.63
2017-10-12T08:09:38.429Z,35.07
2017-10-12T08:12:07.090Z,34.37
2017-10-12T08:14:36.439Z,25.60
2017-10-12T08:17:05.178Z,32.00
2017-10-12T08:19:33.811Z,27.03
2017-10-12T08:22:02.523Z,32.63
2017-10-12T08:24:31.458Z,26.30
2017-10-12T08:27:00.505Z,31.83
2017-10-12T08:29:29.625Z,29.67
2017-10-12T08:31:58.242Z,26.03
2017-10-12T08:34:27.141Z,20.83
2017-10-12T08:36:56.805Z,41.27
2017-10-12T08:39:26.481Z,21.70
2017-10-12T08:41:56.798Z,23.07
2017-10-12T08:44:25.630Z,27.77
2017-10-12T08:46:54.529Z,26.70
2017-10-12T08:49:24.910Z,33.37
2017-10-12T08:51:54.371Z,31.23
2017-10-12T08:54:23.800Z,28.93
2017-10-12T08:56:52.931Z,27.93
2017-10-12T08:59:24.001Z,32.33
2017-10-12T09:01:53.844Z,32.37
2017-10-12T09:04:22.782Z,32.87
2017-10-12T09:06:51.752Z,36.07
2017-10-12T09:09:20.515Z,38.30
2017-10-12T09:11:49.172Z,32.80
2017-10-12T09:14:18.603Z,34.63
2017-10-12T09:16:47.284Z,36.00
2017-10-12T09:19:18.229Z,34.77
2017-10-12T09:21:46.942Z,31.83
2017-10-12T09:24:16.656Z,34.30
2017-10-12T09:26:45.358Z,40.47
2017-10-12T09:31:52.092Z,37.60
2017-10-12T09:34:21.118Z,24.43
2017-10-12T09:36:50.173Z,20.50
2017-10-12T09:39:18.959Z,23.83
2017-10-12T09:41:48.278Z,23.17
2017-10-12T09:44:17.314Z,36.03
2017-10-12T09:46:46.060Z,20.00
2017-10-12T09:49:20.286Z,20.20
2017-10-12T09:51:50.469Z,20.57
2017-10-12T09:54:19.275Z,17.97
2017-10-12T09:56:48.281Z,19.30
2017-10-12T09:59:17.577Z,24.80
2017-10-12T10:01:47.132Z,22.43
2017-10-12T10:04:15.923Z,17.30
2017-10-12T10:06:44.862Z,15.63
2017-10-12T10:09:13.862Z,14.40
2017-10-12T10:11:43.621Z,19.43
2017-10-12T10:14:12.343Z,21.97
2017-10-12T10:16:41.906Z,20.10
2017-10-12T10:19:11.346Z,17.23
2017-10-12T10:21:39.998Z,15.53
2017-10-12T10:24:08.779Z,23.20
2017-10-12T10:26:38.397Z,16.70
2017-10-12T10:29:07.641Z,28.23
2017-10-12T10:31:36.540Z,35.17
2017-10-12T10:34:05.631Z,38.70
2017-10-12T10:36:35.431Z,31.87
2017-10-12T10:39:04.966Z,23.70
2017-10-12T10:41:34.080Z,29.57
2017-10-12T10:44:02.770Z,35.50
2017-10-12T10:46:31.865Z,31.50
2017-10-12T10:49:00.642Z,32.33
2017-10-12T10:51:30.223Z,36.47
2017-10-12T10:53:59.327Z,30.03
2017-10-12T10:56:28.308Z,26.10
2017-10-12T10:58:56.975Z,28.30
2017-10-12T11:01:25.817Z,25.90
2017-10-12T11:03:54.672Z,25.50
2017-10-12T11:06:24.830Z,28.83
2017-10-12T11:08:54.389Z,30.63
2017-10-12T11:11:24.046Z,28.30
2017-10-12T11:13:52.844Z,21.33
2017-10-12T11:16:21.619Z,25.70
2017-10-12T11:18:51.029Z,26.07
2017-10-12T11:21:19.900Z,23.23
2017-10-12T11:23:48.735Z,26.00
2017-10-12T11:26:17.564Z,25.60
2017-10-12T11:28:46.436Z,25.90
2017-10-12T11:31:16.117Z,20.13
2017-10-12T11:33:45.561Z,20.60
2017-10-12T11:36:14.406Z,22.03
2017-10-12T11:38:43.125Z,26.27
2017-10-12T11:41:11.953Z,21.33
2017-10-12T11:43:42.391Z,26.33
2017-10-12T11:46:11.238Z,21.40
2017-10-12T11:48:40.566Z,20.97
2017-10-12T11:51:10.281Z,19.40
2017-10-12T11:53:39.420Z,20.17
2017-10-12T11:56:11.674Z,23.50
2017-10-12T11:58:41.184Z,27.50
2017-10-12T12:01:10.037Z,23.67
2017-10-12T12:03:38.779Z,23.73
2017-10-12T12:06:07.484Z,27.77
2017-10-12T12:08:37.104Z,28.37
2017-10-12T12:11:05.989Z,22.90
2017-10-12T12:13:35.502Z,19.77
2017-10-12T12:16:04.375Z,30.10
2017-10-12T12:18:33.118Z,17.50
2017-10-12T12:21:01.974Z,19.80
2017-10-12T12:23:30.691Z,21.40
2017-10-12T12:26:00.043Z,22.40
2017-10-12T12:28:29.807Z,26.77
2017-10-12T12:30:58.558Z,20.80
2017-10-12T12:33:27.654Z,22.80
2017-10-12T12:35:56.403Z,17.63
2017-10-12T12:38:26.701Z,16.60
2017-10-12T12:40:55.473Z,16.00
2017-10-12T12:43:25.010Z,15.23
2017-10-12T12:45:55.332Z,18.67
2017-10-12T12:48:24.782Z,16.17
2017-10-12T12:50:53.724Z,13.63
2017-10-12T12:53:23.440Z,20.60
2017-10-12T12:55:52.177Z,9.60
2017-10-12T12:58:21.563Z,12.67
2017-10-12T13:00:50.256Z,18.77
2017-10-12T13:03:19.147Z,13.43
2017-10-12T13:05:48.049Z,19.67
2017-10-12T13:08:17.139Z,13.40
2017-10-12T13:10:46.200Z,12.30
2017-10-12T13:13:15.331Z,11.10
2017-10-12T13:15:44.153Z,18.37
2017-10-12T13:18:14.239Z,8.10
2017-10-12T13:20:43.231Z,8.97
2017-10-12T13:23:11.975Z,16.73
2017-10-12T13:25:41.438Z,12.47
2017-10-12T13:28:11.136Z,7.20
2017-10-12T13:30:40.029Z,8.67
2017-10-12T13:33:09.079Z,6.63
2017-10-12T13:35:38.938Z,7.80
2017-10-12T13:38:08.001Z,10.73
2017-10-12T13:40:37.347Z,9.87
2017-10-12T13:43:06.198Z,5.40
2017-10-12T13:45:35.367Z,8.03
2017-10-12T13:48:05.074Z,5.83
2017-10-12T13:50:33.916Z,12.20
2017-10-12T13:53:02.988Z,10.90
2017-10-12T13:55:32.241Z,8.10
2017-10-12T13:58:01.079Z,10.17
2017-10-12T14:00:31.857Z,6.07
2017-10-12T14:03:00.663Z,9.00
2017-10-12T14:05:30.055Z,8.07
2017-10-12T14:07:58.858Z,9.20
2017-10-12T14:10:27.978Z,16.73
2017-10-12T14:12:56.784Z,9.27
2017-10-12T14:15:25.674Z,8.97
2017-10-12T14:17:54.448Z,13.03
2017-10-12T14:20:23.223Z,8.57
2017-10-12T14:22:51.953Z,20.87
2017-10-12T14:25:21.341Z,7.03
2017-10-12T14:27:54.703Z,11.10
2017-10-12T14:30:25.468Z,10.97
2017-10-12T14:32:56.654Z,8.30
2017-10-12T14:35:25.475Z,13.43
2017-10-12T14:37:55.129Z,12.33
2017-10-12T14:40:24.685Z,10.23
2017-10-12T14:42:54.618Z,12.73
2017-10-12T14:45:23.438Z,9.40
2017-10-12T14:47:53.004Z,13.00
2017-10-12T14:50:22.455Z,9.87
2017-10-12T14:52:51.107Z,11.57
2017-10-12T14:55:19.768Z,13.03
2017-10-12T14:57:48.583Z,10.50
2017-10-12T15:00:17.192Z,7.70
2017-10-12T15:02:45.907Z,10.80
2017-10-12T15:05:14.575Z,8.93
2017-10-12T15:07:43.364Z,17.80
2017-10-12T15:10:12.457Z,10.67
2017-10-12T15:12:41.878Z,16.93
2017-10-12T15:15:10.955Z,15.43
2017-10-12T15:17:39.677Z,10.30
2017-10-12T15:20:08.814Z,8.80
2017-10-12T15:22:37.531Z,8.27
2017-10-12T15:25:06.393Z,8.87
2017-10-12T15:27:35.933Z,21.80
2017-10-12T15:30:04.715Z,12.33
2017-10-12T15:32:33.445Z,9.83
2017-10-12T15:35:02.179Z,8.00
2017-10-12T15:37:30.997Z,12.50
2017-10-12T15:40:02.017Z,7.17
2017-10-12T15:42:30.730Z,9.20
2017-10-12T15:44:59.702Z,8.93
2017-10-12T15:47:28.722Z,9.57
2017-10-12T15:49:57.563Z,10.20
2017-10-12T15:52:26.452Z,11.00
2017-10-12T15:54:55.318Z,11.93
2017-10-12T15:57:24.005Z,13.83
2017-10-12T15:59:52.639Z,11.20
2017-10-12T16:02:21.364Z,10.83
2017-10-12T16:04:50.812Z,11.57
2017-10-12T16:07:19.537Z,9.47
2017-10-12T16:09:49.258Z,9.43
2017-10-12T16:12:18.491Z,10.00
2017-10-12T16:14:48.006Z,8.30
2017-10-12T16:17:16.766Z,8.30
2017-10-12T16:19:45.399Z,13.83
2017-10-12T16:22:14.092Z,9.23
2017-10-12T16:24:43.699Z,15.13
2017-10-12T16:27:12.288Z,10.50
2017-10-12T16:29:40.975Z,13.40
2017-10-12T16:32:10.779Z,8.53
2017-10-12T16:34:39.543Z,12.07
2017-10-12T16:37:08.200Z,13.70
2017-10-12T16:39:36.910Z,35.17
2017-10-12T16:42:06.546Z,16.20
2017-10-12T16:44:35.288Z,11.03
2017-10-12T16:47:04.025Z,12.07
2017-10-12T16:49:32.736Z,10.27
2017-10-12T16:52:02.527Z,11.53
2017-10-12T16:54:31.433Z,14.30
2017-10-12T16:57:00.477Z,13.20
2017-10-12T16:59:29.433Z,10.80
2017-10-12T17:01:58.470Z,17.03
2017-10-12T17:04:28.027Z,15.93
2017-10-12T17:06:56.747Z,13.57
2017-10-12T17:09:25.534Z,14.70
2017-10-12T17:11:54.304Z,11.00
2017-10-12T17:14:24.669Z,15.93
2017-10-12T17:16:53.443Z,11.60
2017-10-12T17:19:22.333Z,20.40
2017-10-12T17:21:51.172Z,14.60
2017-10-12T17:24:19.913Z,22.27
2017-10-12T17:26:48.813Z,22.07
2017-10-12T17:29:17.608Z,16.40
2017-10-12T17:31:46.391Z,20.47
2017-10-12T17:34:15.110Z,17.80
2017-10-12T17:36:43.734Z,23.20
2017-10-12T17:39:13.604Z,31.87
2017-10-12T17:41:42.737Z,21.23
2017-10-12T17:44:11.477Z,21.83
2017-10-12T17:46:40.411Z,17.03
2017-10-12T17:49:09.917Z,18.73
2017-10-12T17:51:38.783Z,17.60
2017-10-12T17:54:36.469Z,19.13
2017-10-12T17:56:36.520Z,19.23
2017-10-12T18:01:35.024Z,19.43
2017-10-12T18:04:03.870Z,22.73
2017-10-12T18:06:33.443Z,16.03
2017-10-12T18:09:02.385Z,27.53
2017-10-12T18:11:31.103Z,18.83
2017-10-12T18:13:59.892Z,24.03
2017-10-12T18:16:28.704Z,20.63
2017-10-12T18:18:58.227Z,19.20
2017-10-12T18:21:27.798Z,24.73
2017-10-12T18:23:56.475Z,21.10
2017-10-12T18:26:25.181Z,19.03
2017-10-12T18:28:53.826Z,20.40
2017-10-12T18:31:22.645Z,18.93
2017-10-12T18:33:51.360Z,22.23
2017-10-12T18:36:19.969Z,22.70
2017-10-12T18:38:48.736Z,23.43
2017-10-12T18:41:17.620Z,22.97
2017-10-12T18:43:47.003Z,27.33
2017-10-12T18:46:15.708Z,21.97
2017-10-12T18:48:44.509Z,18.47
2017-10-12T18:51:13.214Z,22.03
2017-10-12T18:53:41.985Z,23.13
2017-10-12T18:56:10.724Z,18.77
2017-10-12T18:58:39.403Z,18.90
2017-10-12T19:01:08.190Z,14.63
2017-10-12T19:03:36.979Z,16.83
2017-10-12T19:06:05.740Z,24.13
2017-10-12T19:08:34.371Z,24.83
2017-10-12T19:11:03.285Z,23.83
2017-10-12T19:13:31.958Z,25.90
2017-10-12T19:16:00.686Z,19.70
2017-10-12T19:18:29.666Z,26.67
2017-10-12T19:20:59.335Z,19.37
2017-10-12T19:23:28.007Z,34.93
2017-10-12T19:25:56.874Z,31.93
2017-10-12T19:28:40.598Z,27.93
2017-10-12T19:30:54.513Z,31.60
2017-10-12T19:33:23.441Z,34.67
2017-10-12T19:35:52.254Z,25.90
2017-10-12T19:38:22.011Z,23.40
2017-10-12T19:43:19.728Z,20.00
2017-10-12T19:48:17.270Z,25.87
2017-10-12T19:50:45.986Z,33.87
2017-10-12T19:53:15.194Z,33.17
2017-10-12T19:55:44.600Z,30.97
2017-10-12T19:58:15.744Z,26.10
2017-10-12T20:00:45.987Z,20.03
2017-10-12T20:03:15.425Z,26.83
2017-10-12T20:05:44.856Z,53.20
2017-10-12T20:08:15.260Z,30.90
2017-10-12T20:10:44.824Z,19.83
2017-10-12T20:13:15.055Z,22.67
2017-10-12T20:15:44.400Z,28.00
2017-10-12T20:18:16.986Z,25.47
2017-10-12T20:20:46.530Z,26.40
2017-10-12T20:23:16.297Z,26.27
2017-10-12T20:25:46.792Z,25.97
2017-10-12T20:28:16.702Z,22.67
2017-10-12T20:30:46.350Z,21.73
2017-10-12T20:33:15.851Z,29.10
2017-10-12T20:35:44.853Z,23.70
2017-10-12T20:38:14.452Z,18.43
2017-10-12T20:40:43.848Z,23.23
2017-10-12T20:43:12.734Z,32.13
2017-10-12T20:45:41.442Z,40.50
2017-10-12T20:48:10.614Z,23.67
2017-10-12T20:50:39.700Z,28.63
2017-10-12T20:53:09.727Z,24.30
2017-10-12T20:55:38.673Z,38.57
2017-10-12T20:58:08.063Z,19.97
2017-10-12T21:00:37.447Z,18.83
2017-10-12T21:03:07.911Z,30.53
2017-10-12T21:05:38.660Z,26.53
2017-10-12T21:08:08.522Z,18.70
2017-10-12T21:10:39.260Z,17.27
2017-10-12T21:13:09.576Z,21.70
2017-10-12T21:15:40.729Z,22.50
2017-10-12T21:18:11.367Z,21.73
2017-10-12T21:20:41.221Z,26.40
2017-10-12T21:23:10.500Z,29.27
2017-10-12T21:25:39.710Z,24.80
2017-10-12T21:28:08.446Z,19.47
2017-10-12T21:30:37.163Z,18.90
2017-10-12T21:33:12.064Z,21.57
2017-10-12T21:35:46.511Z,28.13
2017-10-12T21:38:16.403Z,28.50
2017-10-12T21:40:46.765Z,30.03
2017-10-12T21:43:16.636Z,21.33
2017-10-12T21:45:46.312Z,27.03
2017-10-12T21:48:14.951Z,24.63
2017-10-12T21:50:43.566Z,26.50
2017-10-12T21:53:12.264Z,19.50
2017-10-12T21:55:41.393Z,23.80
2017-10-12T21:58:10.072Z,24.97
2017-10-12T22:00:38.826Z,24.07
2017-10-12T22:03:08.440Z,28.63
2017-10-12T22:05:37.061Z,23.07
2017-10-12T22:08:05.777Z,26.17
2017-10-12T22:10:34.854Z,20.30
2017-10-12T22:13:03.948Z,30.73
2017-10-12T22:15:32.670Z,22.53
2017-10-12T22:18:02.897Z,25.50
2017-10-12T22:20:33.225Z,22.30
2017-10-12T22:23:03.343Z,20.37
2017-10-12T22:25:34.285Z,32.53
2017-10-12T22:28:04.055Z,26.20
2017-10-12T22:30:33.753Z,26.43
2017-10-12T22:33:04.697Z,24.73
2017-10-12T22:35:34.409Z,28.00
2017-10-12T22:38:04.495Z,22.00
2017-10-12T22:40:34.603Z,23.70
2017-10-12T22:43:04.369Z,20.57
2017-10-12T22:45:33.895Z,24.13
2017-10-12T22:48:03.057Z,23.17
2017-10-12T22:50:32.430Z,23.27
2017-10-12T22:53:01.761Z,23.10
2017-10-12T22:55:31.213Z,23.30
2017-10-12T22:58:01.322Z,29.57
2017-10-12T23:00:30.692Z,24.73
2017-10-12T23:03:00.091Z,26.43
2017-10-12T23:05:28.983Z,21.60
2017-10-12T23:07:58.084Z,26.47
2017-10-12T23:10:27.374Z,22.60
2017-10-12T23:12:56.577Z,28.67
2017-10-12T23:15:26.925Z,26.17
2017-10-12T23:17:56.824Z,23.03
2017-10-12T23:20:25.993Z,23.83
2017-10-12T23:22:55.204Z,25.37
2017-10-12T23:25:25.212Z,23.70
2017-10-12T23:27:54.019Z,20.43
2017-10-12T23:30:22.936Z,25.87
2017-10-12T23:32:51.903Z,25.00
2017-10-12T23:35:21.612Z,24.17
2017-10-12T23:37:50.557Z,30.03
2017-10-12T23:40:19.733Z,21.73
2017-10-12T23:42:48.875Z,25.90
2017-10-12T23:45:17.555Z,24.20
2017-10-12T23:47:46.644Z,23.60
2017-10-12T23:50:15.779Z,26.13
2017-10-12T23:52:45.080Z,22.90
2017-10-12T23:55:13.995Z,28.67
2017-10-12T23:57:43.786Z,23.50
